createdAt,value
2023-03-27T00:01:45.357Z,99452.06
2023-03-27T00:04:19.206Z,99452.06
2023-03-27T00:06:49.551Z,99448.78
2023-03-27T00:09:19.537Z,99448.19
2023-03-27T00:11:52.272Z,99449.78
2023-03-27T00:14:20.588Z,99440.00
2023-03-27T00:16:49.008Z,99442.97
2023-03-27T00:19:23.818Z,99459.63
2023-03-27T00:21:52.555Z,99456.09
2023-03-27T00:24:22.818Z,99456.94
2023-03-27T00:26:52.567Z,99458.25
2023-03-27T00:29:21.800Z,99458.97
2023-03-27T00:31:49.879Z,99456.28
2023-03-27T00:34:18.328Z,99449.09
2023-03-27T00:36:51.414Z,99445.69
2023-03-27T00:39:21.020Z,99442.56
2023-03-27T00:41:49.394Z,99451.22
2023-03-27T00:44:24.633Z,99444.13
2023-03-27T00:46:55.107Z,99441.72
2023-03-27T00:49:24.737Z,99445.09
2023-03-27T00:51:53.677Z,99442.28
2023-03-27T00:54:30.248Z,99441.72
2023-03-27T00:57:02.457Z,99453.88
2023-03-27T00:59:37.900Z,99449.97
2023-03-27T01:02:13.400Z,99457.28
2023-03-27T01:04:43.241Z,99446.53
2023-03-27T01:07:12.587Z,99454.84
2023-03-27T01:09:41.752Z,99460.09
2023-03-27T01:12:28.101Z,99455.44
2023-03-27T01:15:13.908Z,99466.06
2023-03-27T01:17:59.566Z,99462.50
2023-03-27T01:21:18.044Z,99467.84
2023-03-27T01:24:03.508Z,99466.16
2023-03-27T01:26:58.388Z,99477.63
2023-03-27T01:29:54.556Z,99476.09
2023-03-27T01:32:48.362Z,99484.53
2023-03-27T01:35:45.996Z,99482.84
2023-03-27T01:38:41.137Z,99491.44
2023-03-27T01:41:27.517Z,99492.41
2023-03-27T01:44:08.662Z,99491.97
2023-03-27T01:46:43.874Z,99492.34
2023-03-27T01:49:31.425Z,99492.91
2023-03-27T01:52:03.808Z,99492.41
2023-03-27T01:54:34.626Z,99490.88
2023-03-27T01:57:18.239Z,99485.06
2023-03-27T01:59:50.457Z,99485.16
2023-03-27T02:02:30.278Z,99489.53
2023-03-27T02:05:05.608Z,99484.75
2023-03-27T02:07:39.960Z,99490.28
2023-03-27T02:10:12.317Z,99488.09
2023-03-27T02:12:51.254Z,99483.13
2023-03-27T02:15:22.571Z,99494.72
2023-03-27T02:17:58.111Z,99485.56
2023-03-27T02:20:26.175Z,99479.59
2023-03-27T02:22:55.827Z,99487.63
2023-03-27T02:25:37.163Z,99478.03
2023-03-27T02:28:26.540Z,99479.69
2023-03-27T02:31:06.821Z,99484.44
2023-03-27T02:34:16.243Z,99483.84
2023-03-27T02:36:49.984Z,99487.63
2023-03-27T02:39:34.402Z,99488.34
2023-03-27T02:42:14.716Z,99488.81
2023-03-27T02:44:51.947Z,99496.00
2023-03-27T02:47:28.809Z,99504.75
2023-03-27T02:50:02.376Z,99507.31
2023-03-27T02:52:37.383Z,99505.44
2023-03-27T02:55:10.821Z,99512.97
2023-03-27T02:57:51.642Z,99515.53
2023-03-27T03:00:26.156Z,99514.78
2023-03-27T03:03:09.714Z,99514.97
2023-03-27T03:05:42.455Z,99515.56
2023-03-27T03:08:10.858Z,99509.09
2023-03-27T03:10:46.238Z,99514.59
2023-03-27T03:13:17.853Z,99510.47
2023-03-27T03:15:50.634Z,99512.56
2023-03-27T03:18:19.446Z,99508.50
2023-03-27T03:20:47.360Z,99518.25
2023-03-27T03:23:19.329Z,99512.16
2023-03-27T03:25:51.198Z,99504.72
2023-03-27T03:28:20.927Z,99503.34
2023-03-27T03:31:11.155Z,99505.16
2023-03-27T03:33:40.906Z,99507.00
2023-03-27T03:36:09.897Z,99505.44
2023-03-27T03:38:42.668Z,99503.47
2023-03-27T03:41:12.433Z,99500.09
2023-03-27T03:43:46.466Z,99506.84
2023-03-27T03:46:16.082Z,99519.03
2023-03-27T03:48:44.592Z,99512.56
2023-03-27T03:51:12.684Z,99524.03
2023-03-27T03:53:40.930Z,99523.88
2023-03-27T03:56:09.475Z,99534.47
2023-03-27T03:58:41.930Z,99542.13
2023-03-27T04:01:12.390Z,99542.88
2023-03-27T04:03:41.821Z,99539.25
2023-03-27T04:06:11.273Z,99534.47
2023-03-27T04:08:43.352Z,99538.28
2023-03-27T04:11:16.198Z,99537.16
2023-03-27T04:13:47.072Z,99540.56
2023-03-27T04:16:15.725Z,99546.13
2023-03-27T04:18:44.666Z,99542.28
2023-03-27T04:21:15.014Z,99545.66
2023-03-27T04:23:48.254Z,99557.84
2023-03-27T04:26:17.538Z,99559.00
2023-03-27T04:28:45.860Z,99560.00
2023-03-27T04:31:21.177Z,99567.22
2023-03-27T04:33:52.623Z,99581.91
2023-03-27T04:36:21.383Z,99581.84
2023-03-27T04:38:50.287Z,99589.41
2023-03-27T04:41:30.008Z,99587.63
2023-03-27T04:43:58.188Z,99591.84
2023-03-27T04:46:31.959Z,99587.00
2023-03-27T04:49:00.287Z,99588.09
2023-03-27T04:51:32.954Z,99592.94
2023-03-27T04:54:09.508Z,99586.78
2023-03-27T04:56:38.327Z,99577.03
2023-03-27T04:59:06.532Z,99584.25
2023-03-27T05:01:36.260Z,99597.53
2023-03-27T05:04:04.879Z,99611.13
2023-03-27T05:06:33.732Z,99601.34
2023-03-27T05:09:03.849Z,99607.84
2023-03-27T05:11:33.366Z,99609.16
2023-03-27T05:14:04.822Z,99623.88
2023-03-27T05:16:36.261Z,99612.81
2023-03-27T05:19:04.342Z,99607.88
2023-03-27T05:21:34.042Z,99619.25
2023-03-27T05:24:02.872Z,99606.53
2023-03-27T05:26:31.357Z,99614.19
2023-03-27T05:29:01.978Z,99615.31
2023-03-27T05:31:30.390Z,99615.47
2023-03-27T05:34:00.383Z,99616.06
2023-03-27T05:36:29.933Z,99620.72
2023-03-27T05:38:58.594Z,99615.63
2023-03-27T05:41:27.851Z,99626.91
2023-03-27T05:44:01.742Z,99628.31
2023-03-27T05:46:34.355Z,99620.66
2023-03-27T05:49:02.780Z,99614.31
2023-03-27T05:51:31.932Z,99612.50
2023-03-27T05:53:59.871Z,99623.13
2023-03-27T05:56:28.234Z,99609.31
2023-03-27T05:58:59.925Z,99624.59
2023-03-27T06:01:28.349Z,99633.09
2023-03-27T06:03:56.667Z,99635.94
2023-03-27T06:06:25.116Z,99640.16
2023-03-27T06:08:54.095Z,99655.13
2023-03-27T06:11:26.746Z,99654.72
2023-03-27T06:13:55.797Z,99665.59
2023-03-27T06:16:24.370Z,99667.91
2023-03-27T06:18:52.709Z,99667.53
2023-03-27T06:21:22.756Z,99674.84
2023-03-27T06:23:50.773Z,99687.03
2023-03-27T06:26:21.346Z,99690.84
2023-03-27T06:28:50.296Z,99676.09
2023-03-27T06:31:20.379Z,99682.88
2023-03-27T06:33:49.389Z,99695.00
2023-03-27T06:36:18.421Z,99697.28
2023-03-27T06:38:52.333Z,99703.75
2023-03-27T06:41:20.774Z,99708.63
2023-03-27T06:43:49.557Z,99707.38
2023-03-27T06:46:17.637Z,99709.75
2023-03-27T06:48:45.878Z,99707.88
2023-03-27T06:51:18.057Z,99711.22
2023-03-27T06:53:47.074Z,99712.72
2023-03-27T06:56:15.326Z,99709.66
2023-03-27T06:58:46.493Z,99715.09
2023-03-27T07:01:14.945Z,99711.19
2023-03-27T07:03:44.646Z,99715.25
2023-03-27T07:06:13.238Z,99711.50
2023-03-27T07:08:41.854Z,99721.00
2023-03-27T07:11:12.478Z,99728.25
2023-03-27T07:13:42.853Z,99719.22
2023-03-27T07:16:14.119Z,99720.91
2023-03-27T07:18:42.922Z,99734.06
2023-03-27T07:21:15.599Z,99726.25
2023-03-27T07:23:43.696Z,99723.53
2023-03-27T07:26:11.645Z,99724.38
2023-03-27T07:28:40.169Z,99718.19
2023-03-27T07:31:32.645Z,99723.03
2023-03-27T07:34:06.501Z,99714.94
2023-03-27T07:36:35.310Z,99713.25
2023-03-27T07:39:07.237Z,99713.03
2023-03-27T07:41:38.925Z,99707.06
2023-03-27T07:44:17.841Z,99702.22
2023-03-27T07:46:52.568Z,99712.69
2023-03-27T07:49:38.741Z,99710.25
2023-03-27T07:52:09.470Z,99716.47
2023-03-27T07:54:38.882Z,99717.06
2023-03-27T07:57:13.152Z,99704.50
2023-03-27T07:59:41.911Z,99706.53
2023-03-27T08:02:10.877Z,99712.31
2023-03-27T08:04:40.121Z,99711.34
2023-03-27T08:07:08.430Z,99710.63
2023-03-27T08:09:36.696Z,99714.03
2023-03-27T08:12:08.070Z,99714.72
2023-03-27T08:14:36.106Z,99708.34
2023-03-27T08:17:15.721Z,99710.41
2023-03-27T08:19:47.413Z,99713.88
2023-03-27T08:22:16.570Z,99715.38
2023-03-27T08:24:48.264Z,99721.50
2023-03-27T08:27:17.845Z,99715.81
2023-03-27T08:29:46.422Z,99716.38
2023-03-27T08:32:15.033Z,99711.66
2023-03-27T08:34:43.610Z,99711.16
2023-03-27T08:37:11.434Z,99706.25
2023-03-27T08:39:39.827Z,99712.03
2023-03-27T08:42:13.703Z,99707.34
2023-03-27T08:44:42.379Z,99709.72
2023-03-27T08:47:14.165Z,99709.75
2023-03-27T08:49:48.716Z,99720.81
2023-03-27T08:52:25.078Z,99711.66
2023-03-27T08:54:59.817Z,99718.94
2023-03-27T08:57:28.673Z,99720.94
2023-03-27T08:59:59.938Z,99721.78
2023-03-27T09:02:34.043Z,99721.78
2023-03-27T09:05:45.654Z,99737.56
2023-03-27T09:08:28.018Z,99732.50
2023-03-27T09:11:41.863Z,99730.09
2023-03-27T09:14:33.265Z,99736.19
2023-03-27T09:17:31.310Z,99719.72
2023-03-27T09:20:13.054Z,99732.22
2023-03-27T09:22:56.550Z,99733.03
2023-03-27T09:25:32.952Z,99726.59
2023-03-27T09:28:01.788Z,99725.63
2023-03-27T09:30:32.908Z,99724.28
2023-03-27T09:33:07.255Z,99718.09
2023-03-27T09:35:39.078Z,99724.94
2023-03-27T09:38:17.442Z,99723.31
2023-03-27T09:40:54.711Z,99720.53
2023-03-27T09:43:26.726Z,99720.19
2023-03-27T09:45:55.918Z,99728.44
2023-03-27T09:48:41.019Z,99729.78
2023-03-27T09:51:39.546Z,99726.69
2023-03-27T09:54:08.601Z,99734.97
2023-03-27T09:57:05.327Z,99730.72
2023-03-27T09:59:39.063Z,99741.56
2023-03-27T10:02:19.453Z,99739.13
2023-03-27T10:05:04.750Z,99749.41
2023-03-27T10:07:34.337Z,99739.06
2023-03-27T10:10:15.934Z,99729.50
2023-03-27T10:12:44.738Z,99725.69
2023-03-27T10:15:34.307Z,99727.94
2023-03-27T10:18:07.025Z,99724.75
2023-03-27T10:20:57.662Z,99718.22
2023-03-27T10:23:30.773Z,99733.28
2023-03-27T10:26:04.752Z,99732.50
2023-03-27T10:28:37.096Z,99730.66
2023-03-27T10:31:15.347Z,99723.50
2023-03-27T10:33:43.752Z,99724.63
2023-03-27T10:36:12.521Z,99714.63
2023-03-27T10:38:41.421Z,99721.56
2023-03-27T10:41:14.688Z,99727.59
2023-03-27T10:43:45.262Z,99728.22
2023-03-27T10:46:20.493Z,99717.69
2023-03-27T10:49:15.147Z,99730.00
2023-03-27T10:52:14.658Z,99725.44
2023-03-27T10:55:09.022Z,99724.72
2023-03-27T10:57:38.429Z,99729.41
2023-03-27T11:00:41.261Z,99730.63
2023-03-27T11:03:27.832Z,99720.09
2023-03-27T11:05:57.646Z,99728.94
2023-03-27T11:08:47.065Z,99735.44
2023-03-27T11:11:26.059Z,99733.94
2023-03-27T11:14:04.084Z,99725.63
2023-03-27T11:16:42.170Z,99730.66
2023-03-27T11:19:11.386Z,99730.38
2023-03-27T11:21:46.826Z,99735.94
2023-03-27T11:24:31.456Z,99727.03
2023-03-27T11:27:15.899Z,99725.66
2023-03-27T11:30:04.918Z,99722.78
2023-03-27T11:33:08.076Z,99723.66
2023-03-27T11:35:50.473Z,99730.94
2023-03-27T11:38:31.955Z,99730.38
2023-03-27T11:41:05.017Z,99737.13
2023-03-27T11:43:34.038Z,99736.00
2023-03-27T11:46:36.845Z,99740.78
2023-03-27T11:49:15.163Z,99744.19
2023-03-27T11:51:57.809Z,99736.22
2023-03-27T11:54:38.725Z,99736.41
2023-03-27T11:57:13.728Z,99732.91
2023-03-27T11:59:57.532Z,99728.31
2023-03-27T12:02:49.659Z,99747.13
2023-03-27T12:05:58.700Z,99744.50
2023-03-27T12:08:37.358Z,99752.09
2023-03-27T12:11:06.797Z,99738.53
2023-03-27T12:14:00.559Z,99741.91
2023-03-27T12:16:48.866Z,99747.56
2023-03-27T12:19:28.961Z,99744.09
2023-03-27T12:22:29.993Z,99750.50
2023-03-27T12:25:17.316Z,99756.00
2023-03-27T12:28:01.807Z,99751.91
2023-03-27T12:30:34.108Z,99758.19
2023-03-27T12:33:46.831Z,99754.94
2023-03-27T12:36:18.912Z,99753.53
2023-03-27T12:38:48.075Z,99757.94
2023-03-27T12:41:33.852Z,99754.00
2023-03-27T12:44:04.639Z,99756.34
2023-03-27T12:46:39.949Z,99749.56
2023-03-27T12:49:16.608Z,99745.00
2023-03-27T12:51:53.815Z,99752.78
2023-03-27T12:54:28.235Z,99744.16
2023-03-27T12:56:59.225Z,99746.13
2023-03-27T12:59:29.043Z,99750.81
2023-03-27T13:02:07.003Z,99759.66
2023-03-27T13:04:48.120Z,99754.03
2023-03-27T13:07:34.883Z,99751.13
2023-03-27T13:10:24.684Z,99752.53
2023-03-27T13:12:56.072Z,99742.66
2023-03-27T13:15:58.837Z,99749.06
2023-03-27T13:19:29.136Z,99755.84
2023-03-27T13:22:10.134Z,99745.59
2023-03-27T13:25:08.164Z,99749.50
2023-03-27T13:28:28.945Z,99745.31
2023-03-27T13:31:01.361Z,99740.91
2023-03-27T13:33:30.415Z,99743.84
2023-03-27T13:36:03.149Z,99740.91
2023-03-27T13:38:53.153Z,99747.69
2023-03-27T13:41:45.628Z,99747.63
2023-03-27T13:44:40.330Z,99743.91
2023-03-27T13:47:33.769Z,99743.00
2023-03-27T13:50:31.591Z,99733.84
2023-03-27T13:53:39.745Z,99737.34
2023-03-27T13:56:23.351Z,99741.28
2023-03-27T13:59:28.641Z,99740.59
2023-03-27T14:02:27.490Z,99741.81
2023-03-27T14:05:36.913Z,99746.94
2023-03-27T14:08:20.272Z,99742.16
2023-03-27T14:11:10.302Z,99742.47
2023-03-27T14:13:54.213Z,99740.94
2023-03-27T14:16:39.584Z,99749.69
2023-03-27T14:19:43.557Z,99755.91
2023-03-27T14:22:24.738Z,99743.88
2023-03-27T14:25:03.343Z,99747.31
2023-03-27T14:27:34.928Z,99747.63
2023-03-27T14:30:09.558Z,99735.03
2023-03-27T14:32:50.266Z,99743.19
2023-03-27T14:35:38.185Z,99738.66
2023-03-27T14:38:22.902Z,99739.59
2023-03-27T14:40:53.012Z,99739.22
2023-03-27T14:43:22.408Z,99732.31
2023-03-27T14:45:52.766Z,99727.69
2023-03-27T14:48:22.855Z,99732.94
2023-03-27T14:50:53.716Z,99731.63
2023-03-27T14:53:28.353Z,99736.47
2023-03-27T14:56:00.931Z,99733.97
2023-03-27T14:58:29.959Z,99730.47
2023-03-27T15:01:05.634Z,99729.28
2023-03-27T15:03:38.307Z,99724.72
2023-03-27T15:06:19.805Z,99724.44
2023-03-27T15:08:56.047Z,99728.56
2023-03-27T15:11:39.390Z,99730.50
2023-03-27T15:14:22.735Z,99740.94
2023-03-27T15:16:58.575Z,99745.50
2023-03-27T15:19:32.421Z,99733.84
2023-03-27T15:22:03.578Z,99740.44
2023-03-27T15:24:34.874Z,99736.56
2023-03-27T15:27:08.354Z,99749.25
2023-03-27T15:29:50.961Z,99751.75
2023-03-27T15:32:22.448Z,99753.41
2023-03-27T15:34:57.176Z,99748.59
2023-03-27T15:37:28.858Z,99756.53
2023-03-27T15:40:10.728Z,99759.34
2023-03-27T15:42:52.619Z,99757.53
2023-03-27T15:45:23.543Z,99754.75
2023-03-27T15:48:08.680Z,99751.94
2023-03-27T15:50:38.155Z,99761.31
2023-03-27T15:53:09.623Z,99763.09
2023-03-27T15:55:45.238Z,99763.34
2023-03-27T15:58:43.267Z,99760.88
2023-03-27T16:01:36.472Z,99758.75
2023-03-27T16:04:19.146Z,99759.91
2023-03-27T16:06:53.553Z,99764.84
2023-03-27T16:09:28.991Z,99771.63
2023-03-27T16:11:59.245Z,99768.19
2023-03-27T16:14:32.301Z,99776.06
2023-03-27T16:17:21.199Z,99776.28
2023-03-27T16:20:01.307Z,99780.44
2023-03-27T16:22:34.946Z,99790.47
2023-03-27T16:25:11.141Z,99774.06
2023-03-27T16:27:46.799Z,99791.44
2023-03-27T16:30:37.436Z,99783.41
2023-03-27T16:33:15.954Z,99788.41
2023-03-27T16:35:45.816Z,99783.44
2023-03-27T16:38:14.742Z,99781.44
2023-03-27T16:40:48.401Z,99786.31
2023-03-27T16:43:17.598Z,99784.59
2023-03-27T16:45:50.617Z,99791.81
2023-03-27T16:48:19.954Z,99788.44
2023-03-27T16:50:48.186Z,99794.97
2023-03-27T16:53:18.602Z,99785.75
2023-03-27T16:55:47.367Z,99797.53
2023-03-27T16:58:15.647Z,99800.50
2023-03-27T17:00:43.775Z,99795.44
2023-03-27T17:03:12.495Z,99798.97
2023-03-27T17:05:43.626Z,99804.22
2023-03-27T17:08:13.457Z,99806.78
2023-03-27T17:10:46.447Z,99800.56
2023-03-27T17:13:15.283Z,99811.06
2023-03-27T17:15:44.023Z,99810.06
2023-03-27T17:18:12.488Z,99808.66
2023-03-27T17:20:43.256Z,99817.03
2023-03-27T17:23:16.056Z,99811.53
2023-03-27T17:25:45.032Z,99804.72
2023-03-27T17:28:15.004Z,99809.66
2023-03-27T17:30:56.650Z,99808.53
2023-03-27T17:33:29.904Z,99808.34
2023-03-27T17:35:59.352Z,99817.69
2023-03-27T17:38:28.076Z,99816.13
2023-03-27T17:40:56.488Z,99818.25
2023-03-27T17:43:25.471Z,99807.31
2023-03-27T17:45:55.434Z,99808.16
2023-03-27T17:48:23.977Z,99808.31
2023-03-27T17:51:08.166Z,99801.09
2023-03-27T17:53:40.342Z,99798.28
2023-03-27T17:56:10.308Z,99801.13
2023-03-27T17:58:38.979Z,99797.84
2023-03-27T18:01:19.331Z,99803.81
2023-03-27T18:03:47.765Z,99799.69
2023-03-27T18:06:19.521Z,99799.13
2023-03-27T18:08:47.637Z,99792.16
2023-03-27T18:11:17.201Z,99797.13
2023-03-27T18:13:51.587Z,99791.31
2023-03-27T18:16:23.439Z,99793.53
2023-03-27T18:18:55.983Z,99800.91
2023-03-27T18:21:25.187Z,99800.34
2023-03-27T18:23:59.670Z,99798.19
2023-03-27T18:26:28.303Z,99796.78
2023-03-27T18:29:04.524Z,99795.34
2023-03-27T18:31:33.512Z,99789.13
2023-03-27T18:34:02.188Z,99801.72
2023-03-27T18:36:30.378Z,99795.19
2023-03-27T18:39:01.289Z,99795.03
2023-03-27T18:41:30.750Z,99795.78
2023-03-27T18:43:59.005Z,99800.31
2023-03-27T18:46:27.840Z,99797.63
2023-03-27T18:49:00.652Z,99786.28
2023-03-27T18:51:32.083Z,99779.63
2023-03-27T18:54:02.701Z,99779.91
2023-03-27T18:56:31.169Z,99779.06
2023-03-27T18:58:59.380Z,99780.47
2023-03-27T19:01:27.498Z,99779.88
2023-03-27T19:03:55.777Z,99785.53
2023-03-27T19:06:27.551Z,99781.84
2023-03-27T19:08:56.366Z,99780.16
2023-03-27T19:11:24.818Z,99786.66
2023-03-27T19:13:53.011Z,99781.28
2023-03-27T19:16:21.095Z,99790.22
2023-03-27T19:18:49.511Z,99782.84
2023-03-27T19:21:17.947Z,99782.97
2023-03-27T19:23:46.482Z,99781.56
2023-03-27T19:26:22.152Z,99781.00
2023-03-27T19:28:50.252Z,99793.75
2023-03-27T19:31:19.167Z,99794.84
2023-03-27T19:33:47.341Z,99794.28
2023-03-27T19:36:16.670Z,99786.34
2023-03-27T19:38:46.094Z,99787.19
2023-03-27T19:41:15.531Z,99786.63
2023-03-27T19:43:46.119Z,99769.03
2023-03-27T19:46:20.108Z,99774.84
2023-03-27T19:48:50.072Z,99773.13
2023-03-27T19:51:18.315Z,99776.53
2023-03-27T19:53:47.018Z,99761.78
2023-03-27T19:56:15.111Z,99763.50
2023-03-27T19:58:43.252Z,99763.06
2023-03-27T20:01:12.559Z,99759.50
2023-03-27T20:03:42.753Z,99758.66
2023-03-27T20:06:19.058Z,99759.38
2023-03-27T20:08:48.016Z,99746.34
2023-03-27T20:11:16.049Z,99739.41
2023-03-27T20:13:55.484Z,99742.09
2023-03-27T20:16:29.869Z,99730.03
2023-03-27T20:19:06.520Z,99736.56
2023-03-27T20:21:40.773Z,99738.41
2023-03-27T20:24:12.646Z,99744.50
2023-03-27T20:26:42.500Z,99730.94
2023-03-27T20:29:19.015Z,99714.47
2023-03-27T20:31:48.508Z,99724.56
2023-03-27T20:34:20.119Z,99723.88
2023-03-27T20:36:53.368Z,99717.66
2023-03-27T20:39:22.097Z,99720.50
2023-03-27T20:41:51.503Z,99724.56
2023-03-27T20:44:19.788Z,99719.78
2023-03-27T20:46:52.262Z,99715.72
2023-03-27T20:52:02.927Z,99709.19
2023-03-27T20:54:31.232Z,99711.03
2023-03-27T20:56:59.304Z,99710.88
2023-03-27T20:59:28.731Z,99712.13
2023-03-27T21:01:59.988Z,99703.91
2023-03-27T21:04:29.292Z,99709.28
2023-03-27T21:06:58.162Z,99712.13
2023-03-27T21:09:27.739Z,99711.00
2023-03-27T21:11:56.872Z,99706.03
2023-03-27T21:14:25.794Z,99711.84
2023-03-27T21:17:02.481Z,99710.00
2023-03-27T21:19:31.114Z,99710.25
2023-03-27T21:22:00.198Z,99712.09
2023-03-27T21:24:31.592Z,99711.84
2023-03-27T21:27:00.621Z,99712.94
2023-03-27T21:29:37.266Z,99706.84
2023-03-27T21:32:06.103Z,99704.03
2023-03-27T21:34:34.352Z,99709.84
2023-03-27T21:37:03.070Z,99703.63
2023-03-27T21:39:31.691Z,99705.72
2023-03-27T21:42:03.484Z,99711.25
2023-03-27T21:44:31.925Z,99702.03
2023-03-27T21:47:00.066Z,99695.94
2023-03-27T21:49:31.244Z,99702.44
2023-03-27T21:51:59.445Z,99683.72
2023-03-27T21:54:27.865Z,99681.97
2023-03-27T21:56:56.497Z,99692.28
2023-03-27T21:59:25.613Z,99692.28
2023-03-27T22:01:56.462Z,99687.88
2023-03-27T22:04:24.741Z,99685.34
2023-03-27T22:06:53.332Z,99677.94
2023-03-27T22:09:25.238Z,99683.88
2023-03-27T22:11:56.233Z,99682.78
2023-03-27T22:14:32.412Z,99677.25
2023-03-27T22:17:01.067Z,99678.59
2023-03-27T22:19:40.545Z,99675.06
2023-03-27T22:22:12.810Z,99673.22
2023-03-27T22:24:41.350Z,99682.41
2023-03-27T22:27:09.469Z,99682.28
2023-03-27T22:29:38.189Z,99677.44
2023-03-27T22:32:10.032Z,99674.22
2023-03-27T22:34:38.386Z,99677.03
2023-03-27T22:37:07.292Z,99676.75
2023-03-27T22:39:35.615Z,99674.34
2023-03-27T22:42:03.707Z,99666.91
2023-03-27T22:44:36.209Z,99657.91
2023-03-27T22:47:08.522Z,99657.91
2023-03-27T22:49:37.085Z,99662.19
2023-03-27T22:52:06.540Z,99660.00
2023-03-27T22:54:35.638Z,99653.38
2023-03-27T22:57:03.977Z,99657.50
2023-03-27T22:59:32.674Z,99656.22
2023-03-27T23:02:01.744Z,99643.09
2023-03-27T23:04:30.030Z,99643.50
2023-03-27T23:07:01.072Z,99655.44
2023-03-27T23:09:29.592Z,99652.34
2023-03-27T23:11:57.794Z,99650.19
2023-03-27T23:14:26.034Z,99655.19
2023-03-27T23:16:54.038Z,99643.84
2023-03-27T23:19:22.269Z,99644.53
2023-03-27T23:21:51.824Z,99632.91
2023-03-27T23:24:20.136Z,99627.53
2023-03-27T23:26:48.106Z,99622.81
2023-03-27T23:29:16.401Z,99626.69
2023-03-27T23:31:44.569Z,99628.78
2023-03-27T23:34:12.820Z,99619.03
2023-03-27T23:36:41.690Z,99613.91
2023-03-27T23:39:12.517Z,99622.69
2023-03-27T23:41:41.919Z,99613.97
2023-03-27T23:44:10.273Z,99612.91
2023-03-27T23:46:39.151Z,99606.00
2023-03-27T23:49:07.502Z,99603.56
2023-03-27T23:51:38.420Z,99598.28
2023-03-27T23:54:07.249Z,99601.28
2023-03-27T23:56:35.459Z,99601.53
2023-03-27T23:59:03.772Z,99593.31
